createdAt,value
2022-08-17T00:00:49.190Z,850.66
2022-08-17T00:01:51.839Z,850.64
2022-08-17T00:02:43.119Z,850.57
2022-08-17T00:03:38.776Z,850.63
2022-08-17T00:04:38.796Z,850.67
2022-08-17T00:05:38.736Z,850.60
2022-08-17T00:06:38.744Z,850.53
2022-08-17T00:07:38.709Z,850.61
2022-08-17T00:08:38.716Z,850.63
2022-08-17T00:09:38.702Z,850.55
2022-08-17T00:10:38.701Z,850.49
2022-08-17T00:11:38.668Z,850.37
2022-08-17T00:12:42.639Z,850.39
2022-08-17T00:13:39.661Z,850.40
2022-08-17T00:14:38.651Z,850.50
2022-08-17T00:15:38.616Z,850.50
2022-08-17T00:16:56.649Z,850.41
2022-08-17T00:17:39.607Z,850.48
2022-08-17T00:19:01.477Z,850.45
2022-08-17T00:19:39.580Z,850.50
2022-08-17T00:20:38.580Z,850.46
2022-08-17T00:22:14.723Z,850.44
2022-08-17T00:22:39.585Z,850.48
2022-08-17T00:23:38.570Z,850.56
2022-08-17T00:24:39.530Z,850.60
2022-08-17T00:25:38.508Z,850.52
2022-08-17T00:26:45.066Z,850.49
2022-08-17T00:27:39.528Z,850.42
2022-08-17T00:28:38.513Z,850.41
2022-08-17T00:29:38.468Z,850.25
2022-08-17T00:30:52.880Z,850.21
2022-08-17T00:31:39.452Z,850.13
2022-08-17T00:33:12.433Z,850.19
2022-08-17T00:33:39.440Z,850.15
2022-08-17T00:34:38.432Z,850.10
2022-08-17T00:35:38.420Z,850.01
2022-08-17T00:36:38.412Z,850.01
2022-08-17T00:37:38.381Z,849.85
2022-08-17T00:38:38.381Z,849.92
2022-08-17T00:39:38.422Z,849.94
2022-08-17T00:40:40.833Z,849.96
2022-08-17T00:41:42.089Z,849.81
2022-08-17T00:42:38.404Z,849.82
2022-08-17T00:43:38.333Z,849.92
2022-08-17T00:44:38.312Z,849.79
2022-08-17T00:45:38.293Z,849.88
2022-08-17T00:46:38.292Z,849.87
2022-08-17T00:47:38.276Z,849.62
2022-08-17T00:48:38.265Z,849.65
2022-08-17T00:49:38.261Z,849.75
2022-08-17T00:50:38.280Z,849.65
2022-08-17T00:51:38.229Z,849.80
2022-08-17T00:52:38.233Z,849.67
2022-08-17T00:53:38.225Z,849.67
2022-08-17T00:54:41.784Z,849.68
2022-08-17T00:55:38.184Z,849.69
2022-08-17T00:56:38.196Z,849.79
2022-08-17T00:57:38.171Z,849.65
2022-08-17T00:58:38.176Z,849.73
2022-08-17T00:59:38.145Z,849.77
2022-08-17T01:00:38.129Z,849.68
2022-08-17T01:01:38.157Z,849.71
2022-08-17T01:02:42.177Z,849.73
2022-08-17T01:03:38.097Z,849.80
2022-08-17T01:04:38.092Z,849.70
2022-08-17T01:05:38.068Z,849.76
2022-08-17T01:06:38.077Z,849.63
2022-08-17T01:07:38.171Z,849.72
2022-08-17T01:08:38.065Z,849.65
2022-08-17T01:09:38.037Z,849.55
2022-08-17T01:11:01.122Z,849.51
2022-08-17T01:11:39.010Z,849.65
2022-08-17T01:12:38.017Z,849.58
2022-08-17T01:13:41.093Z,849.63
2022-08-17T01:14:37.992Z,849.52
2022-08-17T01:15:37.965Z,849.70
2022-08-17T01:16:37.961Z,849.70
2022-08-17T01:17:37.941Z,849.67
2022-08-17T01:18:37.950Z,849.55
2022-08-17T01:19:37.930Z,849.50
2022-08-17T01:20:41.909Z,849.60
2022-08-17T01:21:38.909Z,849.55
2022-08-17T01:22:38.048Z,849.41
2022-08-17T01:23:37.889Z,849.48
2022-08-17T01:24:37.913Z,849.57
2022-08-17T01:25:37.873Z,849.64
2022-08-17T01:26:37.849Z,849.52
2022-08-17T01:27:37.826Z,849.53
2022-08-17T01:28:54.372Z,849.43
2022-08-17T01:29:38.821Z,849.60
2022-08-17T01:30:58.723Z,849.63
2022-08-17T01:31:38.784Z,849.56
2022-08-17T01:32:37.794Z,849.54
2022-08-17T01:33:37.761Z,849.58
2022-08-17T01:34:42.506Z,849.69
2022-08-17T01:35:38.733Z,849.57
2022-08-17T01:36:37.732Z,849.48
2022-08-17T01:37:37.761Z,849.41
2022-08-17T01:38:37.713Z,849.49
2022-08-17T01:39:37.821Z,849.49
2022-08-17T01:40:37.717Z,849.49
2022-08-17T01:41:37.666Z,849.48
2022-08-17T01:42:37.657Z,849.52
2022-08-17T01:43:37.665Z,849.33
2022-08-17T01:44:37.654Z,849.39
2022-08-17T01:45:37.646Z,849.40
2022-08-17T01:46:37.613Z,849.46
2022-08-17T01:47:37.625Z,849.36
2022-08-17T01:48:37.597Z,849.35
2022-08-17T01:49:37.585Z,849.39
2022-08-17T01:50:37.586Z,849.35
2022-08-17T01:51:37.605Z,849.29
2022-08-17T01:52:37.546Z,849.25
2022-08-17T01:53:37.565Z,849.35
2022-08-17T01:54:37.537Z,849.25
2022-08-17T01:55:37.626Z,849.25
2022-08-17T01:56:37.505Z,849.29
2022-08-17T01:57:37.514Z,849.29
2022-08-17T01:58:37.478Z,849.21
2022-08-17T01:59:37.652Z,849.05
2022-08-17T02:00:59.392Z,849.12
2022-08-17T02:01:38.593Z,849.14
2022-08-17T02:02:37.452Z,849.13
2022-08-17T02:03:37.451Z,849.12
2022-08-17T02:04:37.421Z,849.17
2022-08-17T02:05:37.431Z,849.12
2022-08-17T02:06:52.973Z,849.09
2022-08-17T02:07:59.857Z,849.06
2022-08-17T02:08:39.520Z,849.10
2022-08-17T02:09:38.373Z,849.13
2022-08-17T02:10:37.377Z,849.09
2022-08-17T02:11:38.462Z,849.07
2022-08-17T02:12:39.670Z,849.06
2022-08-17T02:13:37.330Z,849.12
2022-08-17T02:14:37.322Z,849.02
2022-08-17T02:15:37.309Z,848.99
2022-08-17T02:16:38.335Z,848.94
2022-08-17T02:17:37.282Z,849.01
2022-08-17T02:18:37.258Z,849.00
2022-08-17T02:19:37.274Z,848.96
2022-08-17T02:20:42.359Z,848.85
2022-08-17T02:21:38.267Z,848.76
2022-08-17T02:22:37.211Z,848.79
2022-08-17T02:23:37.222Z,848.69
2022-08-17T02:25:01.219Z,848.60
2022-08-17T02:25:38.234Z,848.69
2022-08-17T02:26:37.219Z,848.79
2022-08-17T02:27:37.173Z,848.72
2022-08-17T02:28:37.142Z,848.77
2022-08-17T02:29:37.154Z,848.70
2022-08-17T02:31:01.843Z,848.63
2022-08-17T02:31:38.290Z,848.60
2022-08-17T02:32:37.102Z,848.60
2022-08-17T02:33:42.805Z,848.64
2022-08-17T02:34:38.094Z,848.66
2022-08-17T02:35:37.086Z,848.54
2022-08-17T02:36:37.073Z,848.51
2022-08-17T02:37:37.059Z,848.55
2022-08-17T02:38:37.047Z,848.49
2022-08-17T02:39:37.111Z,848.47
2022-08-17T02:40:37.022Z,848.32
2022-08-17T02:41:37.026Z,848.38
2022-08-17T02:42:36.997Z,848.37
2022-08-17T02:43:37.039Z,848.28
2022-08-17T02:44:39.662Z,848.36
2022-08-17T02:45:36.987Z,848.36
2022-08-17T02:46:36.956Z,848.12
2022-08-17T02:47:36.951Z,848.25
2022-08-17T02:48:36.935Z,848.25
2022-08-17T02:49:36.927Z,848.25
2022-08-17T02:50:36.919Z,848.22
2022-08-17T02:51:37.310Z,848.23
2022-08-17T02:52:42.443Z,848.19
2022-08-17T02:53:37.875Z,848.21
2022-08-17T02:54:41.765Z,848.27
2022-08-17T02:55:37.850Z,848.27
2022-08-17T02:56:36.839Z,848.15
2022-08-17T02:57:36.892Z,848.25
2022-08-17T02:58:36.819Z,848.19
2022-08-17T02:59:36.812Z,848.23
2022-08-17T03:00:36.807Z,848.23
2022-08-17T03:01:36.840Z,848.16
2022-08-17T03:02:36.781Z,848.06
2022-08-17T03:03:36.783Z,848.11
2022-08-17T03:04:36.787Z,848.18
2022-08-17T03:05:36.744Z,848.05
2022-08-17T03:06:36.741Z,848.11
2022-08-17T03:07:36.719Z,848.23
2022-08-17T03:08:36.700Z,848.11
2022-08-17T03:09:36.704Z,848.19
2022-08-17T03:10:36.684Z,848.19
2022-08-17T03:11:36.705Z,848.11
2022-08-17T03:12:36.696Z,848.10
2022-08-17T03:13:36.663Z,848.20
2022-08-17T03:14:41.095Z,848.16
2022-08-17T03:15:37.631Z,848.17
2022-08-17T03:16:37.643Z,848.18
2022-08-17T03:17:36.623Z,848.22
2022-08-17T03:18:36.599Z,848.26
2022-08-17T03:19:36.596Z,848.11
2022-08-17T03:20:36.571Z,848.24
2022-08-17T03:21:36.591Z,848.18
2022-08-17T03:22:38.506Z,848.27
2022-08-17T03:23:36.545Z,848.17
2022-08-17T03:24:36.524Z,848.04
2022-08-17T03:25:36.525Z,848.10
2022-08-17T03:26:36.524Z,848.12
2022-08-17T03:27:36.503Z,848.16
2022-08-17T03:28:36.517Z,848.23
2022-08-17T03:29:36.476Z,848.15
2022-08-17T03:30:36.468Z,848.15
2022-08-17T03:31:37.023Z,848.21
2022-08-17T03:32:36.450Z,848.22
2022-08-17T03:33:36.438Z,848.13
2022-08-17T03:34:36.456Z,848.29
2022-08-17T03:35:36.422Z,848.13
2022-08-17T03:36:36.397Z,848.24
2022-08-17T03:37:36.388Z,848.19
2022-08-17T03:38:39.089Z,848.18
2022-08-17T03:39:36.446Z,848.12
2022-08-17T03:40:58.440Z,847.99
2022-08-17T03:41:37.356Z,848.12
2022-08-17T03:42:36.348Z,848.17
2022-08-17T03:43:36.350Z,848.07
2022-08-17T03:44:36.301Z,848.29
2022-08-17T03:45:36.356Z,848.23
2022-08-17T03:46:36.291Z,848.23
2022-08-17T03:47:36.293Z,848.24
2022-08-17T03:48:36.262Z,848.14
2022-08-17T03:49:36.261Z,848.22
2022-08-17T03:50:36.242Z,848.13
2022-08-17T03:51:36.248Z,848.22
2022-08-17T03:52:36.213Z,848.11
2022-08-17T03:53:36.216Z,847.98
2022-08-17T03:54:36.212Z,847.98
2022-08-17T03:55:36.517Z,848.06
2022-08-17T03:56:36.172Z,848.06
2022-08-17T03:57:36.169Z,848.00
2022-08-17T03:58:36.174Z,847.87
2022-08-17T03:59:36.209Z,847.92
2022-08-17T04:00:36.189Z,848.01
2022-08-17T04:01:36.175Z,848.05
2022-08-17T04:02:36.107Z,847.86
2022-08-17T04:03:36.101Z,848.08
2022-08-17T04:04:36.080Z,847.98
2022-08-17T04:05:36.101Z,847.98
2022-08-17T04:06:36.246Z,848.03
2022-08-17T04:07:36.077Z,848.03
2022-08-17T04:08:36.056Z,848.14
2022-08-17T04:09:36.053Z,848.07
2022-08-17T04:10:38.469Z,848.14
2022-08-17T04:11:37.061Z,848.09
2022-08-17T04:12:36.016Z,848.07
2022-08-17T04:13:36.100Z,848.09
2022-08-17T04:14:35.999Z,848.13
2022-08-17T04:15:36.005Z,848.04
2022-08-17T04:16:35.973Z,848.19
2022-08-17T04:17:35.965Z,848.07
2022-08-17T04:18:35.936Z,848.08
2022-08-17T04:19:35.945Z,848.12
2022-08-17T04:20:35.937Z,848.17
2022-08-17T04:21:35.981Z,848.02
2022-08-17T04:22:35.925Z,848.04
2022-08-17T04:23:35.904Z,848.13
2022-08-17T04:24:35.869Z,848.20
2022-08-17T04:25:35.858Z,848.06
2022-08-17T04:26:52.451Z,848.14
2022-08-17T04:27:36.863Z,848.15
2022-08-17T04:28:35.838Z,848.11
2022-08-17T04:29:54.422Z,848.07
2022-08-17T04:30:36.798Z,848.13
2022-08-17T04:31:35.802Z,848.09
2022-08-17T04:33:04.057Z,848.19
2022-08-17T04:33:36.777Z,848.08
2022-08-17T04:34:35.777Z,848.18
2022-08-17T04:35:35.759Z,847.98
2022-08-17T04:36:35.732Z,848.12
2022-08-17T04:37:35.718Z,848.20
2022-08-17T04:38:35.737Z,848.17
2022-08-17T04:39:35.749Z,848.31
2022-08-17T04:40:36.076Z,848.14
2022-08-17T04:41:35.689Z,848.15
2022-08-17T04:42:35.670Z,848.19
2022-08-17T04:43:35.670Z,848.28
2022-08-17T04:44:37.828Z,848.29
2022-08-17T04:45:35.649Z,848.28
2022-08-17T04:46:35.622Z,848.27
2022-08-17T04:47:35.622Z,848.31
2022-08-17T04:48:37.469Z,848.32
2022-08-17T04:49:35.590Z,848.25
2022-08-17T04:50:35.582Z,848.14
2022-08-17T04:51:35.789Z,848.19
2022-08-17T04:52:43.655Z,848.14
2022-08-17T04:53:36.773Z,848.19
2022-08-17T04:54:35.530Z,848.18
2022-08-17T04:55:35.530Z,848.25
2022-08-17T04:56:35.534Z,848.34
2022-08-17T04:57:39.313Z,848.21
2022-08-17T04:58:36.482Z,848.30
2022-08-17T04:59:35.490Z,848.27
2022-08-17T05:00:35.586Z,848.18
2022-08-17T05:01:35.519Z,848.28
2022-08-17T05:02:35.443Z,848.27
2022-08-17T05:03:36.445Z,848.33
2022-08-17T05:04:35.609Z,848.29
2022-08-17T05:05:35.443Z,848.24
2022-08-17T05:06:35.403Z,848.33
2022-08-17T05:07:35.408Z,848.34
2022-08-17T05:08:35.387Z,848.32
2022-08-17T05:09:35.387Z,848.25
2022-08-17T05:10:35.354Z,848.30
2022-08-17T05:11:35.354Z,848.31
2022-08-17T05:12:35.334Z,848.28
2022-08-17T05:13:35.334Z,848.29
2022-08-17T05:14:35.327Z,848.29
2022-08-17T05:15:36.022Z,848.41
2022-08-17T05:16:35.494Z,848.41
2022-08-17T05:17:35.289Z,848.36
2022-08-17T05:18:35.298Z,848.50
2022-08-17T05:19:35.279Z,848.45
2022-08-17T05:20:35.428Z,848.48
2022-08-17T05:21:35.245Z,848.46
2022-08-17T05:22:35.227Z,848.50
2022-08-17T05:23:41.808Z,848.50
2022-08-17T05:24:42.868Z,848.67
2022-08-17T05:25:36.300Z,848.54
2022-08-17T05:26:36.468Z,848.60
2022-08-17T05:27:36.049Z,848.68
2022-08-17T05:28:35.161Z,848.58
2022-08-17T05:29:35.976Z,848.71
2022-08-17T05:30:35.148Z,848.74
2022-08-17T05:31:35.139Z,848.80
2022-08-17T05:32:38.982Z,848.83
2022-08-17T05:33:36.119Z,848.81
2022-08-17T05:34:35.092Z,848.87
2022-08-17T05:35:35.099Z,848.80
2022-08-17T05:36:41.882Z,848.88
2022-08-17T05:37:36.046Z,848.93
2022-08-17T05:38:35.059Z,848.90
2022-08-17T05:39:35.237Z,849.06
2022-08-17T05:40:35.165Z,849.07
2022-08-17T05:41:35.019Z,849.04
2022-08-17T05:42:34.999Z,849.22
2022-08-17T05:43:34.991Z,849.19
2022-08-17T05:44:35.004Z,849.28
2022-08-17T05:45:55.795Z,849.28
2022-08-17T05:46:35.983Z,849.25
2022-08-17T05:47:34.943Z,849.34
2022-08-17T05:48:35.605Z,849.38
2022-08-17T05:49:34.915Z,849.47
2022-08-17T05:50:34.951Z,849.48
2022-08-17T05:51:34.917Z,849.38
2022-08-17T05:52:34.899Z,849.48
2022-08-17T05:53:35.218Z,849.55
2022-08-17T05:54:34.883Z,849.50
2022-08-17T05:55:34.895Z,849.68
2022-08-17T05:56:34.855Z,849.76
2022-08-17T05:57:34.844Z,849.70
2022-08-17T05:58:34.846Z,849.83
2022-08-17T05:59:34.827Z,849.94
2022-08-17T06:00:34.875Z,850.01
2022-08-17T06:01:34.855Z,850.03
2022-08-17T06:02:34.811Z,850.11
2022-08-17T06:03:34.777Z,850.08
2022-08-17T06:04:34.767Z,850.01
2022-08-17T06:05:34.748Z,850.23
2022-08-17T06:06:34.755Z,850.21
2022-08-17T06:07:34.728Z,850.39
2022-08-17T06:08:34.743Z,850.40
2022-08-17T06:09:34.748Z,850.41
2022-08-17T06:10:34.715Z,850.53
2022-08-17T06:11:35.285Z,850.52
2022-08-17T06:12:34.675Z,850.57
2022-08-17T06:13:34.687Z,850.44
2022-08-17T06:14:34.689Z,850.70
2022-08-17T06:15:34.660Z,850.58
2022-08-17T06:16:34.885Z,850.69
2022-08-17T06:17:34.620Z,850.83
2022-08-17T06:18:34.620Z,850.92
2022-08-17T06:19:34.588Z,850.91
2022-08-17T06:20:34.607Z,850.92
2022-08-17T06:21:34.568Z,850.95
2022-08-17T06:22:34.573Z,851.06
2022-08-17T06:23:34.560Z,850.99
2022-08-17T06:24:34.567Z,851.07
2022-08-17T06:25:34.520Z,851.28
2022-08-17T06:26:38.538Z,851.16
2022-08-17T06:27:35.500Z,851.11
2022-08-17T06:28:34.500Z,851.15
2022-08-17T06:29:34.492Z,851.20
2022-08-17T06:30:57.367Z,851.19
2022-08-17T06:31:35.469Z,851.30
2022-08-17T06:32:34.455Z,851.44
2022-08-17T06:33:34.590Z,851.47
2022-08-17T06:34:34.451Z,851.52
2022-08-17T06:35:34.433Z,851.60
2022-08-17T06:36:34.429Z,851.64
2022-08-17T06:37:34.403Z,851.60
2022-08-17T06:38:38.390Z,851.71
2022-08-17T06:39:34.450Z,851.67
2022-08-17T06:40:34.373Z,851.79
2022-08-17T06:41:36.550Z,851.91
2022-08-17T06:43:02.055Z,851.78
2022-08-17T06:43:35.334Z,851.85
2022-08-17T06:44:43.583Z,851.88
2022-08-17T06:45:35.319Z,851.91
2022-08-17T06:46:34.315Z,852.02
2022-08-17T06:47:34.289Z,852.04
2022-08-17T06:48:34.297Z,851.99
2022-08-17T06:49:34.584Z,851.99
2022-08-17T06:50:34.277Z,852.07
2022-08-17T06:51:34.266Z,852.08
2022-08-17T06:52:45.916Z,852.16
2022-08-17T06:53:35.228Z,852.12
2022-08-17T06:54:34.228Z,852.18
2022-08-17T06:55:37.881Z,852.18
2022-08-17T06:56:53.042Z,852.27
2022-08-17T06:57:35.197Z,852.34
2022-08-17T06:58:34.178Z,852.31
2022-08-17T06:59:55.777Z,852.41
2022-08-17T07:00:35.245Z,852.41
2022-08-17T07:01:34.200Z,852.39
2022-08-17T07:02:52.657Z,852.46
2022-08-17T07:03:35.119Z,852.39
2022-08-17T07:04:34.117Z,852.53
2022-08-17T07:05:34.101Z,852.50
2022-08-17T07:06:34.090Z,852.58
2022-08-17T07:07:34.101Z,852.71
2022-08-17T07:08:35.290Z,852.68
2022-08-17T07:09:34.400Z,852.64
2022-08-17T07:10:34.048Z,852.74
2022-08-17T07:11:34.028Z,852.80
2022-08-17T07:12:34.042Z,852.72
2022-08-17T07:13:34.005Z,852.80
2022-08-17T07:14:33.998Z,852.85
2022-08-17T07:15:34.001Z,852.84
2022-08-17T07:16:33.972Z,852.93
2022-08-17T07:17:47.015Z,853.01
2022-08-17T07:18:34.945Z,852.98
2022-08-17T07:19:33.924Z,853.03
2022-08-17T07:20:33.939Z,853.07
2022-08-17T07:21:33.925Z,853.19
2022-08-17T07:22:55.263Z,853.15
2022-08-17T07:23:34.904Z,853.24
2022-08-17T07:24:33.897Z,853.26
2022-08-17T07:25:33.873Z,853.16
2022-08-17T07:26:33.885Z,853.34
2022-08-17T07:27:33.866Z,853.41
2022-08-17T07:28:33.853Z,853.39
2022-08-17T07:29:33.933Z,853.49
2022-08-17T07:30:37.257Z,853.46
2022-08-17T07:31:34.792Z,853.48
2022-08-17T07:32:33.805Z,853.55
2022-08-17T07:33:33.777Z,853.58
2022-08-17T07:34:33.777Z,853.59
2022-08-17T07:35:41.068Z,853.59
2022-08-17T07:36:34.765Z,853.59
2022-08-17T07:37:33.737Z,853.57
2022-08-17T07:38:33.736Z,853.58
2022-08-17T07:39:33.781Z,853.64
2022-08-17T07:40:33.766Z,853.58
2022-08-17T07:41:53.454Z,853.74
2022-08-17T07:42:34.677Z,853.67
2022-08-17T07:43:33.697Z,853.65
2022-08-17T07:44:33.669Z,853.79
2022-08-17T07:45:33.836Z,853.87
2022-08-17T07:46:33.657Z,853.82
2022-08-17T07:47:33.617Z,853.97
2022-08-17T07:48:33.637Z,853.95
2022-08-17T07:49:33.629Z,853.96
2022-08-17T07:50:33.601Z,854.11
2022-08-17T07:51:33.584Z,854.14
2022-08-17T07:52:51.346Z,854.17
2022-08-17T07:53:34.570Z,854.02
2022-08-17T07:54:33.565Z,854.20
2022-08-17T07:55:33.533Z,854.25
2022-08-17T07:56:34.738Z,854.19
2022-08-17T07:57:33.510Z,854.40
2022-08-17T07:58:33.523Z,854.31
2022-08-17T07:59:34.023Z,854.44
2022-08-17T08:00:33.593Z,854.45
2022-08-17T08:01:39.697Z,854.63
2022-08-17T08:02:34.473Z,854.60
2022-08-17T08:03:33.471Z,854.80
2022-08-17T08:05:49.766Z,854.74
2022-08-17T08:06:34.435Z,854.81
2022-08-17T08:07:33.422Z,854.86
2022-08-17T08:08:33.395Z,854.80
2022-08-17T08:09:33.410Z,854.94
2022-08-17T08:10:33.389Z,854.95
2022-08-17T08:11:33.405Z,855.01
2022-08-17T08:12:33.818Z,855.03
2022-08-17T08:13:33.355Z,855.02
2022-08-17T08:14:33.327Z,855.12
2022-08-17T08:15:33.317Z,855.21
2022-08-17T08:16:33.317Z,855.24
2022-08-17T08:17:33.294Z,855.34
2022-08-17T08:18:53.673Z,855.37
2022-08-17T08:19:34.265Z,855.53
2022-08-17T08:20:51.698Z,855.59
2022-08-17T08:21:34.246Z,855.81
2022-08-17T08:22:33.270Z,855.83
2022-08-17T08:23:33.237Z,856.03
2022-08-17T08:24:33.298Z,856.11
2022-08-17T08:25:33.219Z,856.25
2022-08-17T08:26:33.198Z,856.25
2022-08-17T08:27:33.186Z,856.20
2022-08-17T08:28:33.191Z,856.29
2022-08-17T08:29:33.190Z,856.33
2022-08-17T08:30:33.214Z,856.32
2022-08-17T08:31:33.154Z,856.29
2022-08-17T08:32:33.147Z,856.28
2022-08-17T08:33:33.132Z,856.43
2022-08-17T08:34:58.707Z,856.37
2022-08-17T08:35:34.102Z,856.40
2022-08-17T08:36:59.290Z,856.65
2022-08-17T08:37:39.103Z,856.79
2022-08-17T08:38:34.158Z,857.00
2022-08-17T08:39:33.140Z,857.11
2022-08-17T08:40:33.034Z,857.18
2022-08-17T08:41:33.042Z,857.35
2022-08-17T08:42:33.021Z,857.34
2022-08-17T08:43:33.022Z,857.53
2022-08-17T08:44:59.899Z,857.80
2022-08-17T08:45:34.845Z,857.90
2022-08-17T08:46:32.977Z,858.00
2022-08-17T08:47:35.414Z,858.18
2022-08-17T08:48:55.812Z,858.18
2022-08-17T08:50:02.136Z,858.31
2022-08-17T08:50:38.083Z,858.26
2022-08-17T08:51:32.934Z,858.23
2022-08-17T08:52:32.915Z,858.29
2022-08-17T08:53:32.907Z,858.29
2022-08-17T08:54:32.918Z,858.49
2022-08-17T08:55:32.895Z,858.57
2022-08-17T08:56:32.878Z,858.52
2022-08-17T08:57:34.362Z,858.67
2022-08-17T08:58:41.951Z,858.52
2022-08-17T08:59:33.867Z,858.64
2022-08-17T09:00:33.819Z,858.66
2022-08-17T09:01:32.901Z,858.65
2022-08-17T09:02:34.926Z,858.52
2022-08-17T09:03:51.746Z,858.52
2022-08-17T09:04:49.936Z,858.55
2022-08-17T09:05:33.799Z,858.54
2022-08-17T09:06:39.233Z,858.67
2022-08-17T09:07:33.771Z,858.78
2022-08-17T09:08:32.750Z,858.73
2022-08-17T09:09:32.735Z,858.88
2022-08-17T09:10:32.738Z,858.92
2022-08-17T09:11:32.731Z,859.02
2022-08-17T09:12:32.700Z,859.23
2022-08-17T09:13:32.711Z,859.23
2022-08-17T09:14:32.693Z,859.42
2022-08-17T09:15:33.690Z,859.49
2022-08-17T09:16:32.663Z,859.66
2022-08-17T09:17:32.673Z,859.75
2022-08-17T09:18:59.896Z,859.76
2022-08-17T09:19:33.622Z,859.97
2022-08-17T09:20:32.635Z,860.18
2022-08-17T09:21:33.958Z,860.18
2022-08-17T09:22:32.603Z,860.25
2022-08-17T09:23:32.599Z,860.37
2022-08-17T09:24:33.084Z,860.47
2022-08-17T09:25:32.576Z,860.55
2022-08-17T09:26:32.583Z,860.53
2022-08-17T09:27:32.548Z,860.68
2022-08-17T09:28:32.535Z,860.70
2022-08-17T09:29:32.547Z,860.54
2022-08-17T09:30:32.516Z,860.59
2022-08-17T09:31:33.443Z,860.53
2022-08-17T09:32:32.488Z,860.61
2022-08-17T09:33:32.479Z,860.60
2022-08-17T09:34:33.272Z,860.61
2022-08-17T09:35:32.460Z,860.65
2022-08-17T09:36:32.479Z,860.52
2022-08-17T09:37:32.435Z,860.49
2022-08-17T09:38:32.868Z,860.55
2022-08-17T09:39:32.469Z,860.35
2022-08-17T09:40:32.400Z,860.34
2022-08-17T09:41:32.419Z,860.43
2022-08-17T09:42:32.387Z,860.56
2022-08-17T09:43:32.371Z,860.40
2022-08-17T09:44:32.360Z,860.47
2022-08-17T09:45:32.359Z,860.67
2022-08-17T09:46:32.363Z,860.59
2022-08-17T09:47:32.332Z,860.70
2022-08-17T09:48:32.324Z,860.59
2022-08-17T09:49:32.311Z,860.74
2022-08-17T09:51:05.453Z,860.81
2022-08-17T09:51:33.291Z,860.82
2022-08-17T09:52:32.271Z,860.77
2022-08-17T09:53:32.319Z,860.79
2022-08-17T09:54:39.178Z,860.77
2022-08-17T09:55:33.255Z,860.91
2022-08-17T09:56:32.243Z,860.95
2022-08-17T09:57:32.675Z,860.80
2022-08-17T09:58:32.355Z,860.83
2022-08-17T09:59:38.222Z,860.69
2022-08-17T10:00:33.196Z,860.77
2022-08-17T10:01:32.273Z,860.77
2022-08-17T10:02:32.175Z,860.78
2022-08-17T10:03:32.228Z,860.65
2022-08-17T10:04:32.303Z,860.81
2022-08-17T10:05:32.135Z,860.89
2022-08-17T10:06:32.115Z,860.73
2022-08-17T10:07:32.114Z,860.75
2022-08-17T10:08:32.108Z,860.67
2022-08-17T10:09:32.099Z,860.71
2022-08-17T10:10:32.506Z,860.57
2022-08-17T10:11:33.707Z,860.40
2022-08-17T10:12:32.071Z,860.50
2022-08-17T10:13:32.059Z,860.50
2022-08-17T10:14:37.847Z,860.65
2022-08-17T10:15:33.039Z,860.73
2022-08-17T10:16:32.041Z,860.73
2022-08-17T10:17:31.999Z,860.96
2022-08-17T10:18:33.315Z,860.84
2022-08-17T10:19:32.007Z,861.00
2022-08-17T10:20:32.002Z,860.99
2022-08-17T10:21:31.993Z,860.92
2022-08-17T10:22:34.721Z,861.11
2022-08-17T10:23:32.943Z,860.95
2022-08-17T10:24:31.944Z,860.93
2022-08-17T10:25:53.633Z,860.88
2022-08-17T10:26:40.308Z,860.88
2022-08-17T10:27:32.916Z,860.82
2022-08-17T10:28:31.876Z,860.71
2022-08-17T10:29:47.345Z,860.70
2022-08-17T10:30:32.910Z,860.72
2022-08-17T10:31:35.834Z,860.63
2022-08-17T10:32:31.850Z,860.68
2022-08-17T10:33:31.876Z,860.60
2022-08-17T10:34:36.154Z,860.66
2022-08-17T10:35:32.835Z,860.54
2022-08-17T10:36:31.795Z,860.40
2022-08-17T10:37:31.795Z,860.33
2022-08-17T10:38:31.807Z,860.47
2022-08-17T10:39:31.863Z,860.60
2022-08-17T10:40:31.785Z,860.43
2022-08-17T10:41:32.570Z,860.51
2022-08-17T10:42:33.009Z,860.46
2022-08-17T10:43:31.727Z,860.45
2022-08-17T10:44:39.280Z,860.53
2022-08-17T10:45:32.707Z,860.56
2022-08-17T10:46:31.895Z,860.59
2022-08-17T10:47:42.339Z,860.77
2022-08-17T10:48:32.660Z,860.55
2022-08-17T10:49:31.687Z,860.49
2022-08-17T10:50:31.670Z,860.56
2022-08-17T10:51:31.665Z,860.28
2022-08-17T10:52:31.623Z,860.45
2022-08-17T10:53:31.619Z,860.39
2022-08-17T10:54:31.614Z,860.27
2022-08-17T10:55:31.591Z,859.99
2022-08-17T10:56:31.625Z,859.91
2022-08-17T10:57:31.568Z,859.86
2022-08-17T10:58:31.576Z,859.78
2022-08-17T10:59:31.556Z,859.76
2022-08-17T11:00:31.547Z,859.60
2022-08-17T11:01:31.618Z,859.50
2022-08-17T11:02:31.619Z,859.50
2022-08-17T11:03:31.523Z,859.48
2022-08-17T11:04:31.496Z,859.53
2022-08-17T11:05:31.500Z,859.37
2022-08-17T11:06:31.478Z,859.22
2022-08-17T11:07:31.507Z,859.14
2022-08-17T11:08:31.459Z,859.13
2022-08-17T11:09:31.455Z,859.15
2022-08-17T11:10:31.434Z,859.04
2022-08-17T11:11:31.434Z,858.82
2022-08-17T11:12:31.408Z,858.71
2022-08-17T11:13:31.436Z,858.70
2022-08-17T11:14:31.388Z,858.69
2022-08-17T11:15:31.397Z,858.72
2022-08-17T11:16:31.405Z,858.64
2022-08-17T11:17:31.381Z,858.44
2022-08-17T11:18:31.372Z,858.38
2022-08-17T11:19:31.352Z,858.41
2022-08-17T11:20:31.319Z,858.25
2022-08-17T11:21:31.317Z,858.19
2022-08-17T11:22:33.478Z,858.09
2022-08-17T11:23:31.319Z,857.82
2022-08-17T11:24:31.280Z,857.67
2022-08-17T11:25:31.293Z,857.42
2022-08-17T11:26:31.268Z,857.34
2022-08-17T11:27:31.321Z,857.08
2022-08-17T11:28:31.288Z,856.88
2022-08-17T11:29:31.265Z,856.52
2022-08-17T11:30:31.232Z,856.37
2022-08-17T11:31:38.823Z,856.13
2022-08-17T11:32:32.204Z,855.90
2022-08-17T11:33:31.734Z,855.94
2022-08-17T11:34:31.192Z,855.51
2022-08-17T11:35:31.181Z,855.24
2022-08-17T11:36:31.156Z,854.99
2022-08-17T11:37:31.144Z,854.87
2022-08-17T11:38:31.143Z,854.60
2022-08-17T11:39:31.198Z,854.47
2022-08-17T11:40:31.115Z,854.36
2022-08-17T11:41:31.108Z,854.25
2022-08-17T11:42:31.084Z,854.10
2022-08-17T11:43:31.103Z,854.02
2022-08-17T11:44:31.064Z,853.94
2022-08-17T11:45:32.566Z,853.79
2022-08-17T11:46:31.049Z,853.52
2022-08-17T11:47:31.043Z,853.30
2022-08-17T11:48:31.379Z,853.09
2022-08-17T11:49:31.016Z,852.87
2022-08-17T11:50:31.028Z,852.68
2022-08-17T11:51:30.996Z,852.55
2022-08-17T11:52:30.976Z,852.52
2022-08-17T11:53:30.969Z,852.30
2022-08-17T11:54:33.858Z,852.25
2022-08-17T11:55:35.746Z,852.23
2022-08-17T11:56:31.928Z,852.20
2022-08-17T11:57:30.922Z,852.11
2022-08-17T11:58:30.907Z,852.21
2022-08-17T11:59:30.928Z,852.08
2022-08-17T12:00:30.880Z,852.03
2022-08-17T12:01:30.881Z,851.99
2022-08-17T12:02:31.711Z,852.18
2022-08-17T12:03:30.882Z,851.95
2022-08-17T12:04:30.864Z,851.86
2022-08-17T12:05:30.860Z,852.10
2022-08-17T12:06:31.155Z,852.09
2022-08-17T12:07:30.820Z,852.15
2022-08-17T12:08:30.792Z,852.04
2022-08-17T12:09:30.792Z,852.18
2022-08-17T12:10:30.812Z,852.10
2022-08-17T12:11:55.508Z,852.23
2022-08-17T12:12:31.765Z,852.18
2022-08-17T12:13:39.535Z,852.30
2022-08-17T12:15:05.931Z,852.39
2022-08-17T12:15:31.736Z,852.47
2022-08-17T12:16:30.707Z,852.43
2022-08-17T12:17:40.254Z,852.42
2022-08-17T12:18:31.721Z,852.73
2022-08-17T12:19:30.684Z,852.72
2022-08-17T12:20:30.677Z,852.67
2022-08-17T12:21:30.654Z,852.76
2022-08-17T12:22:30.656Z,852.79
2022-08-17T12:23:30.648Z,852.89
2022-08-17T12:24:30.623Z,852.98
2022-08-17T12:25:30.627Z,852.83
2022-08-17T12:26:30.604Z,853.11
2022-08-17T12:27:56.779Z,853.02
2022-08-17T12:28:31.605Z,853.15
2022-08-17T12:29:35.889Z,853.10